createdAt,value
2018-09-11T00:01:45.799Z,18.50
2018-09-11T00:04:13.887Z,18.50
2018-09-11T00:06:41.982Z,18.40
2018-09-11T00:09:11.965Z,18.40
2018-09-11T00:11:40.366Z,18.40
2018-09-11T00:14:08.534Z,18.40
2018-09-11T00:16:37.566Z,18.50
2018-09-11T00:19:05.653Z,18.50
2018-09-11T00:21:33.764Z,18.40
2018-09-11T00:24:01.851Z,18.40
2018-09-11T00:26:29.955Z,18.40
2018-09-11T00:28:58.025Z,18.40
2018-09-11T00:31:26.174Z,18.40
2018-09-11T00:33:54.271Z,18.40
2018-09-11T00:36:22.356Z,18.40
2018-09-11T00:38:50.561Z,18.40
2018-09-11T00:41:18.677Z,18.40
2018-09-11T00:43:46.733Z,18.30
2018-09-11T00:46:14.822Z,18.30
2018-09-11T00:48:42.872Z,18.30
2018-09-11T00:51:10.939Z,18.20
2018-09-11T00:53:38.983Z,18.20
2018-09-11T00:56:07.126Z,18.20
2018-09-11T00:58:35.179Z,18.20
2018-09-11T01:01:03.248Z,18.10
2018-09-11T01:03:31.399Z,18.10
2018-09-11T01:05:59.509Z,18.10
2018-09-11T01:08:27.544Z,18.10
2018-09-11T01:10:55.599Z,18.10
2018-09-11T01:13:23.650Z,18.10
2018-09-11T01:15:51.818Z,18.00
2018-09-11T01:18:19.871Z,18.00
2018-09-11T01:20:47.953Z,18.00
2018-09-11T01:23:16.043Z,18.00
2018-09-11T01:25:44.178Z,18.00
2018-09-11T01:28:12.250Z,18.00
2018-09-11T01:30:40.334Z,17.90
2018-09-11T01:33:08.394Z,18.00
2018-09-11T01:35:36.437Z,17.90
2018-09-11T01:38:04.900Z,18.00
2018-09-11T01:40:32.985Z,18.00
2018-09-11T01:43:01.052Z,18.00
2018-09-11T01:45:29.131Z,18.00
2018-09-11T01:47:57.219Z,18.00
2018-09-11T01:50:25.276Z,17.90
2018-09-11T01:52:53.400Z,17.90
2018-09-11T01:55:21.504Z,17.90
2018-09-11T01:57:49.598Z,17.90
2018-09-11T02:00:18.289Z,17.90
2018-09-11T02:02:46.924Z,17.90
2018-09-11T02:05:15.036Z,17.90
2018-09-11T02:07:43.878Z,17.90
2018-09-11T02:10:12.385Z,17.90
2018-09-11T02:12:40.473Z,17.90
2018-09-11T02:15:09.216Z,18.00
2018-09-11T02:17:37.531Z,18.00
2018-09-11T02:20:05.927Z,17.90
2018-09-11T02:22:34.068Z,17.90
2018-09-11T02:25:02.172Z,17.80
2018-09-11T02:30:04.752Z,17.80
2018-09-11T02:32:32.808Z,17.80
2018-09-11T02:35:00.954Z,17.80
2018-09-11T02:37:29.065Z,17.80
2018-09-11T02:39:57.118Z,17.80
2018-09-11T02:42:25.195Z,17.90
2018-09-11T02:44:53.259Z,17.90
2018-09-11T02:47:21.399Z,17.90
2018-09-11T02:49:49.493Z,17.90
2018-09-11T02:52:17.578Z,17.90
2018-09-11T02:54:45.624Z,17.90
2018-09-11T02:57:13.673Z,17.90
2018-09-11T02:59:41.735Z,18.00
2018-09-11T03:02:10.009Z,18.00
2018-09-11T03:04:38.107Z,18.00
2018-09-11T03:07:06.194Z,17.90
2018-09-11T03:09:34.408Z,17.90
2018-09-11T03:12:02.491Z,17.90
2018-09-11T03:14:30.570Z,17.90
2018-09-11T03:16:58.626Z,18.00
2018-09-11T03:19:26.703Z,18.10
2018-09-11T03:21:54.860Z,18.00
2018-09-11T03:24:23.143Z,18.00
2018-09-11T03:26:51.337Z,18.00
2018-09-11T03:29:19.454Z,18.00
2018-09-11T03:31:47.508Z,17.90
2018-09-11T03:34:15.579Z,17.90
2018-09-11T03:36:43.636Z,17.90
2018-09-11T03:39:11.980Z,17.90
2018-09-11T03:41:40.067Z,17.90
2018-09-11T03:44:08.188Z,17.90
2018-09-11T03:46:36.207Z,18.00
2018-09-11T03:49:04.428Z,18.00
2018-09-11T03:51:32.475Z,18.00
2018-09-11T03:54:00.550Z,18.00
2018-09-11T03:56:28.633Z,18.00
2018-09-11T03:58:56.707Z,18.00
2018-09-11T04:01:24.762Z,18.10
2018-09-11T04:03:52.845Z,18.10
2018-09-11T04:06:21.017Z,18.10
2018-09-11T04:08:49.079Z,18.10
2018-09-11T04:11:17.212Z,18.10
2018-09-11T04:13:45.381Z,18.10
2018-09-11T04:16:13.456Z,18.10
2018-09-11T04:18:41.536Z,18.10
2018-09-11T04:21:09.603Z,18.10
2018-09-11T04:23:37.724Z,18.10
2018-09-11T04:26:06.436Z,18.10
2018-09-11T04:28:34.515Z,18.10
2018-09-11T04:31:02.594Z,18.10
2018-09-11T04:33:30.673Z,18.20
2018-09-11T04:35:58.740Z,18.20
2018-09-11T04:38:27.018Z,18.20
2018-09-11T04:40:55.159Z,18.20
2018-09-11T04:43:23.214Z,18.20
2018-09-11T04:45:51.308Z,18.20
2018-09-11T04:48:19.403Z,18.20
2018-09-11T04:50:47.460Z,18.20
2018-09-11T04:53:15.531Z,18.20
2018-09-11T04:55:43.697Z,18.30
2018-09-11T04:58:11.810Z,18.30
2018-09-11T05:00:39.885Z,18.30
2018-09-11T05:03:08.065Z,18.30
2018-09-11T05:05:36.156Z,18.40
2018-09-11T05:08:04.234Z,18.50
2018-09-11T05:10:32.541Z,18.50
2018-09-11T05:13:00.599Z,18.50
2018-09-11T05:15:28.705Z,18.50
2018-09-11T05:17:56.774Z,18.50
2018-09-11T05:20:24.847Z,18.50
2018-09-11T05:22:52.922Z,18.50
2018-09-11T05:25:21.065Z,18.50
2018-09-11T05:27:49.289Z,18.60
2018-09-11T05:30:17.923Z,18.60
2018-09-11T05:32:46.129Z,18.60
2018-09-11T05:35:14.240Z,18.60
2018-09-11T05:42:53.287Z,18.60
2018-09-11T05:45:21.387Z,18.60
2018-09-11T05:47:49.482Z,18.90
2018-09-11T05:50:17.582Z,18.50
2018-09-11T05:52:45.672Z,18.40
2018-09-11T05:55:13.757Z,18.50
2018-09-11T05:57:42.015Z,18.50
2018-09-11T06:00:10.176Z,18.50
2018-09-11T06:02:38.280Z,18.50
2018-09-11T06:05:06.602Z,18.50
2018-09-11T06:07:34.709Z,18.50
2018-09-11T06:10:02.888Z,18.60
2018-09-11T06:12:31.018Z,18.60
2018-09-11T06:14:59.254Z,18.60
2018-09-11T06:17:27.325Z,18.60
2018-09-11T06:19:55.483Z,18.60
2018-09-11T06:22:23.612Z,18.70
2018-09-11T06:24:51.696Z,18.70
2018-09-11T06:27:19.803Z,18.70
2018-09-11T06:29:47.889Z,18.70
2018-09-11T06:32:16.016Z,18.80
2018-09-11T06:34:44.142Z,18.90
2018-09-11T06:37:12.241Z,18.90
2018-09-11T06:39:40.322Z,19.00
2018-09-11T06:42:08.567Z,19.00
2018-09-11T06:44:36.718Z,19.10
2018-09-11T06:47:04.787Z,19.20
2018-09-11T06:49:32.873Z,19.20
2018-09-11T06:52:00.965Z,19.20
2018-09-11T06:54:29.039Z,19.20
2018-09-11T06:56:57.138Z,19.30
2018-09-11T06:59:25.206Z,19.30
2018-09-11T07:01:53.347Z,19.40
2018-09-11T07:04:21.513Z,19.50
2018-09-11T07:06:49.832Z,19.60
2018-09-11T07:09:17.900Z,19.80
2018-09-11T07:11:46.203Z,19.80
2018-09-11T07:14:14.260Z,20.00
2018-09-11T07:16:42.406Z,20.10
2018-09-11T07:19:10.512Z,20.10
2018-09-11T07:21:38.583Z,20.10
2018-09-11T07:24:06.924Z,20.10
2018-09-11T07:26:35.018Z,20.20
2018-09-11T07:29:03.079Z,20.20
2018-09-11T07:31:31.169Z,20.20
2018-09-11T07:33:59.251Z,20.40
2018-09-11T07:36:27.373Z,20.40
2018-09-11T07:38:55.435Z,20.40
2018-09-11T07:41:23.486Z,20.40
2018-09-11T07:43:51.592Z,20.50
2018-09-11T07:46:19.728Z,20.40
2018-09-11T07:48:47.872Z,20.40
2018-09-11T07:51:15.970Z,20.40
2018-09-11T07:53:44.110Z,20.50
2018-09-11T07:56:12.192Z,20.70
2018-09-11T07:58:40.259Z,20.70
2018-09-11T08:01:08.361Z,20.80
2018-09-11T08:03:36.444Z,21.00
2018-09-11T08:06:04.552Z,21.00
2018-09-11T08:08:32.748Z,21.20
2018-09-11T08:11:00.867Z,21.30
2018-09-11T08:13:28.952Z,21.30
2018-09-11T08:15:57.053Z,21.10
2018-09-11T08:18:25.391Z,21.00
2018-09-11T08:20:53.546Z,21.00
2018-09-11T08:23:21.659Z,21.00
2018-09-11T08:25:49.793Z,21.10
2018-09-11T08:28:17.883Z,21.30
2018-09-11T08:30:45.972Z,21.40
2018-09-11T08:33:14.032Z,21.50
2018-09-11T08:35:42.116Z,21.60
2018-09-11T08:38:10.185Z,21.60
2018-09-11T08:40:38.269Z,21.70
2018-09-11T08:43:06.385Z,21.70
2018-09-11T08:45:34.451Z,21.70
2018-09-11T08:48:02.658Z,21.70
2018-09-11T08:50:30.733Z,21.80
2018-09-11T08:52:58.823Z,21.80
2018-09-11T08:55:26.864Z,21.80
2018-09-11T08:57:54.942Z,21.90
2018-09-11T09:00:23.021Z,22.00
2018-09-11T09:02:51.172Z,22.00
2018-09-11T09:05:19.335Z,22.00
2018-09-11T09:07:47.510Z,21.90
2018-09-11T09:10:15.604Z,21.80
2018-09-11T09:12:43.756Z,21.90
2018-09-11T09:15:11.849Z,21.90
2018-09-11T09:17:40.020Z,22.10
2018-09-11T09:20:08.076Z,22.20
2018-09-11T09:22:36.163Z,22.40
2018-09-11T09:25:04.779Z,22.30
2018-09-11T09:27:32.865Z,22.20
2018-09-11T09:30:00.943Z,22.30
2018-09-11T09:32:29.091Z,22.40
2018-09-11T09:34:57.165Z,22.50
2018-09-11T09:37:25.292Z,22.70
2018-09-11T09:39:53.362Z,22.80
2018-09-11T09:42:21.463Z,22.90
2018-09-11T09:44:49.512Z,23.00
2018-09-11T09:47:17.602Z,23.20
2018-09-11T09:49:45.664Z,23.20
2018-09-11T09:52:13.767Z,23.10
2018-09-11T09:54:41.892Z,23.00
2018-09-11T09:57:10.058Z,23.10
2018-09-11T09:59:38.227Z,23.00
2018-09-11T10:02:25.337Z,23.00
2018-09-11T10:04:54.260Z,23.00
2018-09-11T10:07:23.203Z,22.90
2018-09-11T10:09:51.889Z,22.90
2018-09-11T10:12:20.080Z,22.80
2018-09-11T10:14:48.225Z,22.90
2018-09-11T10:17:16.312Z,23.00
2018-09-11T10:19:44.398Z,23.00
2018-09-11T10:22:12.522Z,23.00
2018-09-11T10:24:40.613Z,23.10
2018-09-11T10:27:09.336Z,22.90
2018-09-11T10:29:37.437Z,22.90
2018-09-11T10:32:05.605Z,23.10
2018-09-11T10:34:33.669Z,23.10
2018-09-11T10:37:01.775Z,23.10
2018-09-11T10:39:29.940Z,23.20
2018-09-11T10:41:58.002Z,23.20
2018-09-11T10:44:26.060Z,23.30
2018-09-11T10:46:54.121Z,23.50
2018-09-11T10:49:22.184Z,23.50
2018-09-11T10:51:50.310Z,23.50
2018-09-11T10:54:18.306Z,23.70
2018-09-11T10:56:46.389Z,23.70
2018-09-11T10:59:14.478Z,23.80
2018-09-11T11:01:42.594Z,23.90
2018-09-11T11:04:10.660Z,23.90
2018-09-11T11:06:38.710Z,23.90
2018-09-11T11:09:08.400Z,23.90
2018-09-11T11:11:36.617Z,24.00
2018-09-11T11:14:04.672Z,24.20
2018-09-11T11:16:32.718Z,24.50
2018-09-11T11:19:00.783Z,24.60
2018-09-11T11:21:28.862Z,24.60
2018-09-11T11:23:56.972Z,24.40
2018-09-11T11:26:25.057Z,24.60
2018-09-11T11:28:53.127Z,24.40
2018-09-11T11:31:21.216Z,24.30
2018-09-11T11:33:49.359Z,24.50
2018-09-11T11:36:17.556Z,24.50
2018-09-11T11:38:45.530Z,24.50
2018-09-11T11:41:13.610Z,24.30
2018-09-11T11:43:41.706Z,24.30
2018-09-11T11:46:09.772Z,24.30
2018-09-11T11:48:37.871Z,24.40
2018-09-11T11:51:06.120Z,24.40
2018-09-11T11:53:34.284Z,24.60
2018-09-11T11:56:02.338Z,24.60
2018-09-11T11:58:30.422Z,24.80
2018-09-11T12:00:58.508Z,25.00
2018-09-11T12:03:26.673Z,25.10
2018-09-11T12:05:54.736Z,25.20
2018-09-11T12:08:22.945Z,25.30
2018-09-11T12:10:51.014Z,25.40
2018-09-11T12:13:19.210Z,25.40
2018-09-11T12:15:47.243Z,25.40
2018-09-11T12:18:15.352Z,25.30
2018-09-11T12:20:43.461Z,25.10
2018-09-11T12:23:11.644Z,24.90
2018-09-11T12:25:39.768Z,24.80
2018-09-11T12:28:07.789Z,24.70
2018-09-11T12:30:35.848Z,24.70
2018-09-11T12:33:03.916Z,24.80
2018-09-11T12:35:32.004Z,24.80
2018-09-11T12:38:00.102Z,24.80
2018-09-11T12:40:28.227Z,24.90
2018-09-11T12:42:56.314Z,25.00
2018-09-11T12:45:24.361Z,25.00
2018-09-11T12:47:52.934Z,24.90
2018-09-11T12:50:20.523Z,24.90
2018-09-11T12:52:48.607Z,24.90
2018-09-11T12:55:16.737Z,24.90
2018-09-11T12:57:44.824Z,24.90
2018-09-11T13:00:13.089Z,25.00
2018-09-11T13:02:41.198Z,25.00
2018-09-11T13:05:09.292Z,25.00
2018-09-11T13:07:37.451Z,25.00
2018-09-11T13:10:05.563Z,25.10
2018-09-11T13:12:33.644Z,25.30
2018-09-11T13:15:01.807Z,25.30
2018-09-11T13:17:29.851Z,25.40
2018-09-11T13:19:57.893Z,25.50
2018-09-11T13:22:25.979Z,25.50
2018-09-11T13:24:54.058Z,25.40
2018-09-11T13:27:22.142Z,25.20
2018-09-11T13:29:50.224Z,25.10
2018-09-11T13:32:18.322Z,25.10
2018-09-11T13:34:46.451Z,25.10
2018-09-11T13:37:14.622Z,25.10
2018-09-11T13:39:42.727Z,25.10
2018-09-11T13:42:10.882Z,25.20
2018-09-11T13:44:39.149Z,25.30
2018-09-11T13:47:07.363Z,25.20
2018-09-11T13:49:35.730Z,25.20
2018-09-11T13:52:03.813Z,25.20
2018-09-11T13:54:32.020Z,25.40
2018-09-11T13:57:00.219Z,25.50
2018-09-11T13:59:28.367Z,25.60
2018-09-11T14:01:56.425Z,25.60
2018-09-11T14:04:24.523Z,25.60
2018-09-11T14:06:52.723Z,25.50
2018-09-11T14:09:20.831Z,25.40
2018-09-11T14:11:48.900Z,25.50
2018-09-11T14:14:16.979Z,25.50
2018-09-11T14:16:45.028Z,25.50
2018-09-11T14:19:13.151Z,25.50
2018-09-11T14:21:41.205Z,25.50
2018-09-11T14:24:09.341Z,25.60
2018-09-11T14:26:37.402Z,25.60
2018-09-11T14:29:05.449Z,25.60
2018-09-11T14:31:33.532Z,25.60
2018-09-11T14:34:01.630Z,25.50
2018-09-11T14:36:29.719Z,25.50
2018-09-11T14:38:57.839Z,25.50
2018-09-11T14:41:25.914Z,25.50
2018-09-11T14:43:53.987Z,25.60
2018-09-11T14:46:22.089Z,25.70
2018-09-11T14:48:50.164Z,25.70
2018-09-11T14:51:18.344Z,25.70
2018-09-11T14:53:46.483Z,25.70
2018-09-11T14:56:14.568Z,25.70
2018-09-11T14:58:42.640Z,25.70
2018-09-11T15:01:10.724Z,25.70
2018-09-11T15:03:38.861Z,25.70
2018-09-11T15:06:06.948Z,25.60
2018-09-11T15:08:35.065Z,25.40
2018-09-11T15:11:03.178Z,25.30
2018-09-11T15:13:31.296Z,25.30
2018-09-11T15:15:59.368Z,25.30
2018-09-11T15:18:27.500Z,25.30
2018-09-11T15:20:55.561Z,25.20
2018-09-11T15:23:23.643Z,25.20
2018-09-11T15:25:51.781Z,25.20
2018-09-11T15:28:19.877Z,25.20
2018-09-11T15:30:47.998Z,25.10
2018-09-11T15:33:16.068Z,25.00
2018-09-11T15:35:44.174Z,24.90
2018-09-11T15:38:12.272Z,24.90
2018-09-11T15:40:40.344Z,24.90
2018-09-11T15:43:08.419Z,24.90
2018-09-11T15:45:36.525Z,24.90
2018-09-11T15:48:04.620Z,25.00
2018-09-11T15:50:32.712Z,25.10
2018-09-11T15:53:00.970Z,25.20
2018-09-11T15:55:29.056Z,25.30
2018-09-11T15:57:57.124Z,25.30
2018-09-11T16:00:25.234Z,25.40
2018-09-11T16:02:53.326Z,25.40
2018-09-11T16:05:21.396Z,25.50
2018-09-11T16:07:49.487Z,25.40
2018-09-11T16:10:17.605Z,25.30
2018-09-11T16:12:45.699Z,25.30
2018-09-11T16:15:13.786Z,25.30
2018-09-11T16:17:41.900Z,25.30
2018-09-11T16:20:10.021Z,25.30
2018-09-11T16:22:38.110Z,25.40
2018-09-11T16:25:06.307Z,25.40
2018-09-11T16:27:34.427Z,25.30
2018-09-11T16:30:02.544Z,25.30
2018-09-11T16:32:30.611Z,25.30
2018-09-11T16:34:58.697Z,25.30
2018-09-11T16:37:26.825Z,25.20
2018-09-11T16:39:54.958Z,25.30
2018-09-11T16:42:22.987Z,25.30
2018-09-11T16:44:51.127Z,25.20
2018-09-11T16:47:19.378Z,25.20
2018-09-11T16:49:47.474Z,25.20
2018-09-11T16:52:15.571Z,25.10
2018-09-11T16:54:43.832Z,25.10
2018-09-11T16:57:11.935Z,25.00
2018-09-11T16:59:40.010Z,24.90
2018-09-11T17:02:08.169Z,24.90
2018-09-11T17:04:36.675Z,24.80
2018-09-11T17:07:04.779Z,24.70
2018-09-11T17:09:32.925Z,24.60
2018-09-11T17:12:01.022Z,24.60
2018-09-11T17:14:29.119Z,24.60
2018-09-11T17:16:57.209Z,24.50
2018-09-11T17:19:25.275Z,24.40
2018-09-11T17:21:53.379Z,24.30
2018-09-11T17:24:21.557Z,24.30
2018-09-11T17:26:49.654Z,24.20
2018-09-11T17:29:17.756Z,24.10
2018-09-11T17:31:45.877Z,24.10
2018-09-11T17:34:14.034Z,24.10
2018-09-11T17:36:42.178Z,24.10
2018-09-11T17:39:11.452Z,24.10
2018-09-11T17:41:40.232Z,24.00
2018-09-11T17:44:08.487Z,24.00
2018-09-11T17:46:36.767Z,24.00
2018-09-11T17:49:05.135Z,24.00
2018-09-11T17:51:33.252Z,24.00
2018-09-11T17:54:01.513Z,23.90
2018-09-11T17:56:30.125Z,23.90
2018-09-11T17:58:58.204Z,23.80
2018-09-11T18:01:26.377Z,23.80
2018-09-11T18:03:54.580Z,23.70
2018-09-11T18:06:22.647Z,23.50
2018-09-11T18:08:50.779Z,23.50
2018-09-11T18:11:18.893Z,23.40
2018-09-11T18:13:47.076Z,23.40
2018-09-11T18:16:15.184Z,23.30
2018-09-11T18:18:43.359Z,23.30
2018-09-11T18:21:11.473Z,23.20
2018-09-11T18:23:39.605Z,23.20
2018-09-11T18:26:07.730Z,23.20
2018-09-11T18:28:35.852Z,23.20
2018-09-11T18:31:03.922Z,23.20
2018-09-11T18:33:32.041Z,23.20
2018-09-11T18:36:00.116Z,23.20
2018-09-11T18:38:28.212Z,23.20
2018-09-11T18:40:56.294Z,23.20
2018-09-11T18:43:24.472Z,23.20
2018-09-11T18:45:52.729Z,23.20
2018-09-11T18:48:20.837Z,23.10
2018-09-11T18:50:48.950Z,23.00
2018-09-11T18:53:17.283Z,22.90
2018-09-11T18:55:45.407Z,22.90
2018-09-11T18:58:13.522Z,22.80
2018-09-11T19:00:41.664Z,22.80
2018-09-11T19:03:09.767Z,22.90
2018-09-11T19:05:37.886Z,23.00
2018-09-11T19:08:06.016Z,23.10
2018-09-11T19:10:34.132Z,23.10
2018-09-11T19:13:03.116Z,23.10
2018-09-11T19:15:31.215Z,23.10
2018-09-11T19:17:59.295Z,23.10
2018-09-11T19:20:27.441Z,23.10
2018-09-11T19:22:55.464Z,23.10
2018-09-11T19:25:23.583Z,23.10
2018-09-11T19:27:51.676Z,23.10
2018-09-11T19:30:19.757Z,23.10
2018-09-11T19:32:47.839Z,23.20
2018-09-11T19:35:15.934Z,23.20
2018-09-11T19:37:44.031Z,23.20
2018-09-11T19:40:12.151Z,23.20
2018-09-11T19:42:40.270Z,23.30
2018-09-11T19:45:08.352Z,23.30
2018-09-11T19:47:36.473Z,23.30
2018-09-11T19:50:04.572Z,21.70
2018-09-11T19:52:32.655Z,23.30
2018-09-11T19:55:00.726Z,23.30
2018-09-11T19:57:28.827Z,23.40
2018-09-11T19:59:56.975Z,23.30
2018-09-11T20:02:25.092Z,23.30
2018-09-11T20:04:53.207Z,23.20
2018-09-11T20:07:21.266Z,23.10
2018-09-11T20:09:49.385Z,23.10
2018-09-11T20:12:17.453Z,23.00
2018-09-11T20:14:45.552Z,22.90
2018-09-11T20:17:13.657Z,22.80
2018-09-11T20:19:41.735Z,22.80
2018-09-11T20:22:11.192Z,22.70
2018-09-11T20:24:39.296Z,22.60
2018-09-11T20:27:07.880Z,22.50
2018-09-11T20:29:35.972Z,22.50
2018-09-11T20:32:04.119Z,22.40
2018-09-11T20:34:32.233Z,22.50
2018-09-11T20:37:00.281Z,22.50
2018-09-11T20:39:28.361Z,22.40
2018-09-11T20:41:56.403Z,22.40
2018-09-11T20:44:24.504Z,22.40
2018-09-11T20:46:52.595Z,22.40
2018-09-11T20:49:20.699Z,22.40
2018-09-11T20:51:48.806Z,22.40
2018-09-11T20:54:16.896Z,22.40
2018-09-11T20:56:44.996Z,22.40
2018-09-11T20:59:13.072Z,22.30
2018-09-11T21:01:41.144Z,22.30
2018-09-11T21:04:09.259Z,22.30
2018-09-11T21:06:37.310Z,22.30
2018-09-11T21:09:06.692Z,22.30
2018-09-11T21:11:35.019Z,22.30
2018-09-11T21:14:03.124Z,22.20
2018-09-11T21:16:31.207Z,22.20
2018-09-11T21:18:59.306Z,22.20
2018-09-11T21:21:27.413Z,22.10
2018-09-11T21:23:55.523Z,22.00
2018-09-11T21:26:23.597Z,22.10
2018-09-11T21:28:51.729Z,22.00
2018-09-11T21:31:19.767Z,22.10
2018-09-11T21:33:47.878Z,22.10
2018-09-11T21:36:15.963Z,22.10
2018-09-11T21:38:44.027Z,22.10
2018-09-11T21:41:12.183Z,22.00
2018-09-11T21:43:40.266Z,22.00
2018-09-11T21:46:08.379Z,21.90
2018-09-11T21:48:36.509Z,21.90
2018-09-11T21:51:04.655Z,21.80
2018-09-11T21:53:32.740Z,21.70
2018-09-11T21:56:00.843Z,21.60
2018-09-11T21:58:28.994Z,21.60
2018-09-11T22:01:03.168Z,21.50
2018-09-11T22:03:31.248Z,21.40
2018-09-11T22:05:59.425Z,21.40
2018-09-11T22:08:27.510Z,21.30
2018-09-11T22:10:55.610Z,21.30
2018-09-11T22:13:23.821Z,21.30
2018-09-11T22:15:51.877Z,21.30
2018-09-11T22:18:19.943Z,21.30
2018-09-11T22:20:48.047Z,21.20
2018-09-11T22:23:16.316Z,21.30
2018-09-11T22:25:44.410Z,21.30
2018-09-11T22:28:12.558Z,21.30
2018-09-11T22:30:40.644Z,21.20
2018-09-11T22:33:08.815Z,21.10
2018-09-11T22:35:36.972Z,21.10
2018-09-11T22:38:05.205Z,21.10
2018-09-11T22:40:33.331Z,21.10
2018-09-11T22:43:01.454Z,21.00
2018-09-11T22:45:30.528Z,21.10
2018-09-11T22:47:58.681Z,21.00
2018-09-11T22:50:26.776Z,21.10
2018-09-11T22:52:54.926Z,21.10
2018-09-11T22:55:23.079Z,21.10
2018-09-11T22:57:51.187Z,21.20
2018-09-11T23:00:19.298Z,21.10
2018-09-11T23:02:47.350Z,21.10
2018-09-11T23:05:15.472Z,21.10
2018-09-11T23:07:43.631Z,21.10
2018-09-11T23:10:11.719Z,21.10
2018-09-11T23:12:39.761Z,21.00
2018-09-11T23:15:07.875Z,21.00
2018-09-11T23:17:35.976Z,20.90
2018-09-11T23:20:04.135Z,20.90
2018-09-11T23:22:32.202Z,20.80
2018-09-11T23:25:00.275Z,20.80
2018-09-11T23:27:28.343Z,20.80
2018-09-11T23:30:03.404Z,20.70
2018-09-11T23:32:31.490Z,20.60
2018-09-11T23:34:59.538Z,20.60
2018-09-11T23:37:27.680Z,20.60
2018-09-11T23:39:55.796Z,20.60
2018-09-11T23:42:23.857Z,20.60
2018-09-11T23:44:51.945Z,20.50
2018-09-11T23:47:20.137Z,20.50
2018-09-11T23:49:48.317Z,20.40
2018-09-11T23:52:16.444Z,20.40
2018-09-11T23:54:44.500Z,20.40
2018-09-11T23:57:12.602Z,20.30
2018-09-11T23:59:40.651Z,20.40
